sensor_id;sensor_type;location;lat;lon;timestamp;P1;durP1;ratioP1;P2;durP2;ratioP2
14797;SDS011;7490;63.708;20.368;2023-11-21T00:02:21;4.20;;;2.72;;
14797;SDS011;7490;63.708;20.368;2023-11-21T00:04:47;4.03;;;3.10;;
14797;SDS011;7490;63.708;20.368;2023-11-21T00:07:13;4.57;;;3.33;;
14797;SDS011;7490;63.708;20.368;2023-11-21T00:09:40;3.35;;;2.80;;
14797;SDS011;7490;63.708;20.368;2023-11-21T00:12:06;3.90;;;2.90;;
14797;SDS011;7490;63.708;20.368;2023-11-21T00:14:38;4.10;;;2.83;;
14797;SDS011;7490;63.708;20.368;2023-11-21T00:17:04;4.45;;;3.22;;
14797;SDS011;7490;63.708;20.368;2023-11-21T00:19:30;3.70;;;2.83;;
14797;SDS011;7490;63.708;20.368;2023-11-21T00:21:56;3.80;;;2.88;;
14797;SDS011;7490;63.708;20.368;2023-11-21T00:24:23;3.30;;;2.67;;
14797;SDS011;7490;63.708;20.368;2023-11-21T00:26:49;3.75;;;3.10;;
14797;SDS011;7490;63.708;20.368;2023-11-21T00:29:15;3.97;;;2.80;;
14797;SDS011;7490;63.708;20.368;2023-11-21T00:31:43;3.45;;;2.60;;
14797;SDS011;7490;63.708;20.368;2023-11-21T00:34:11;5.85;;;2.90;;
14797;SDS011;7490;63.708;20.368;2023-11-21T00:36:37;4.78;;;3.22;;
14797;SDS011;7490;63.708;20.368;2023-11-21T00:39:03;3.97;;;2.73;;
14797;SDS011;7490;63.708;20.368;2023-11-21T00:41:30;4.60;;;3.22;;
14797;SDS011;7490;63.708;20.368;2023-11-21T00:43:56;4.30;;;2.92;;
14797;SDS011;7490;63.708;20.368;2023-11-21T00:46:22;4.37;;;3.03;;
14797;SDS011;7490;63.708;20.368;2023-11-21T00:48:49;5.25;;;3.30;;
14797;SDS011;7490;63.708;20.368;2023-11-21T00:51:15;5.95;;;3.42;;
14797;SDS011;7490;63.708;20.368;2023-11-21T00:53:41;4.30;;;3.10;;
14797;SDS011;7490;63.708;20.368;2023-11-21T00:56:06;4.97;;;3.40;;
14797;SDS011;7490;63.708;20.368;2023-11-21T00:58:33;4.20;;;3.08;;
14797;SDS011;7490;63.708;20.368;2023-11-21T01:00:59;4.13;;;3.20;;
14797;SDS011;7490;63.708;20.368;2023-11-21T01:03:24;4.03;;;3.10;;
14797;SDS011;7490;63.708;20.368;2023-11-21T01:05:50;4.03;;;2.80;;
14797;SDS011;7490;63.708;20.368;2023-11-21T01:08:16;4.13;;;2.83;;
14797;SDS011;7490;63.708;20.368;2023-11-21T01:10:41;3.97;;;2.60;;
14797;SDS011;7490;63.708;20.368;2023-11-21T01:13:07;2.90;;;2.60;;
14797;SDS011;7490;63.708;20.368;2023-11-21T01:15:36;4.80;;;2.80;;
14797;SDS011;7490;63.708;20.368;2023-11-21T01:18:01;4.05;;;2.60;;
14797;SDS011;7490;63.708;20.368;2023-11-21T01:20:28;2.67;;;2.05;;
14797;SDS011;7490;63.708;20.368;2023-11-21T01:22:54;5.23;;;2.77;;
14797;SDS011;7490;63.708;20.368;2023-11-21T01:25:20;3.40;;;2.50;;
14797;SDS011;7490;63.708;20.368;2023-11-21T01:27:46;3.10;;;2.20;;
14797;SDS011;7490;63.708;20.368;2023-11-21T01:30:12;2.97;;;2.40;;
14797;SDS011;7490;63.708;20.368;2023-11-21T01:32:38;2.92;;;2.08;;
14797;SDS011;7490;63.708;20.368;2023-11-21T01:35:05;3.20;;;2.65;;
14797;SDS011;7490;63.708;20.368;2023-11-21T01:37:31;2.90;;;1.85;;
14797;SDS011;7490;63.708;20.368;2023-11-21T01:39:58;2.50;;;1.88;;
14797;SDS011;7490;63.708;20.368;2023-11-21T01:42:24;2.95;;;2.22;;
14797;SDS011;7490;63.708;20.368;2023-11-21T01:44:50;2.20;;;2.00;;
14797;SDS011;7490;63.708;20.368;2023-11-21T01:47:16;2.23;;;2.03;;
14797;SDS011;7490;63.708;20.368;2023-11-21T01:49:45;2.28;;;2.05;;
14797;SDS011;7490;63.708;20.368;2023-11-21T01:52:12;2.67;;;2.10;;
14797;SDS011;7490;63.708;20.368;2023-11-21T01:54:38;2.10;;;1.90;;
14797;SDS011;7490;63.708;20.368;2023-11-21T01:57:04;2.45;;;2.25;;
14797;SDS011;7490;63.708;20.368;2023-11-21T01:59:34;2.42;;;2.20;;
14797;SDS011;7490;63.708;20.368;2023-11-21T02:02:06;3.28;;;2.38;;
14797;SDS011;7490;63.708;20.368;2023-11-21T02:04:32;2.70;;;2.08;;
14797;SDS011;7490;63.708;20.368;2023-11-21T02:06:58;2.50;;;2.10;;
14797;SDS011;7490;63.708;20.368;2023-11-21T02:09:25;2.10;;;1.92;;
14797;SDS011;7490;63.708;20.368;2023-11-21T02:11:52;2.63;;;1.65;;
14797;SDS011;7490;63.708;20.368;2023-11-21T02:14:19;2.20;;;1.77;;
14797;SDS011;7490;63.708;20.368;2023-11-21T02:16:50;2.75;;;2.40;;
14797;SDS011;7490;63.708;20.368;2023-11-21T02:19:20;2.08;;;1.88;;
14797;SDS011;7490;63.708;20.368;2023-11-21T02:21:50;2.38;;;1.90;;
14797;SDS011;7490;63.708;20.368;2023-11-21T02:24:20;2.63;;;2.20;;
14797;SDS011;7490;63.708;20.368;2023-11-21T02:26:47;1.90;;;1.70;;
14797;SDS011;7490;63.708;20.368;2023-11-21T02:29:16;2.13;;;1.92;;
14797;SDS011;7490;63.708;20.368;2023-11-21T02:31:47;3.78;;;1.90;;
14797;SDS011;7490;63.708;20.368;2023-11-21T02:34:17;2.45;;;2.08;;
14797;SDS011;7490;63.708;20.368;2023-11-21T02:36:46;2.33;;;2.13;;
14797;SDS011;7490;63.708;20.368;2023-11-21T02:39:15;1.63;;;1.52;;
14797;SDS011;7490;63.708;20.368;2023-11-21T02:41:41;2.95;;;1.73;;
14797;SDS011;7490;63.708;20.368;2023-11-21T02:44:10;2.03;;;1.83;;
14797;SDS011;7490;63.708;20.368;2023-11-21T02:46:36;2.47;;;1.87;;
14797;SDS011;7490;63.708;20.368;2023-11-21T02:49:05;1.70;;;1.58;;
14797;SDS011;7490;63.708;20.368;2023-11-21T02:51:31;2.03;;;1.92;;
14797;SDS011;7490;63.708;20.368;2023-11-21T02:53:57;1.63;;;1.52;;
14797;SDS011;7490;63.708;20.368;2023-11-21T02:56:24;2.08;;;1.90;;
14797;SDS011;7490;63.708;20.368;2023-11-21T02:58:56;3.35;;;1.83;;
14797;SDS011;7490;63.708;20.368;2023-11-21T03:01:22;2.78;;;1.85;;
14797;SDS011;7490;63.708;20.368;2023-11-21T03:03:49;1.90;;;1.77;;
14797;SDS011;7490;63.708;20.368;2023-11-21T03:06:16;1.45;;;1.35;;
14797;SDS011;7490;63.708;20.368;2023-11-21T03:08:43;1.65;;;1.55;;
14797;SDS011;7490;63.708;20.368;2023-11-21T03:11:09;1.60;;;1.50;;
14797;SDS011;7490;63.708;20.368;2023-11-21T03:13:34;2.33;;;1.60;;
14797;SDS011;7490;63.708;20.368;2023-11-21T03:16:00;1.87;;;1.77;;
14797;SDS011;7490;63.708;20.368;2023-11-21T03:18:25;1.87;;;1.73;;
14797;SDS011;7490;63.708;20.368;2023-11-21T03:20:54;1.70;;;1.60;;
14797;SDS011;7490;63.708;20.368;2023-11-21T03:23:20;1.30;;;1.20;;
14797;SDS011;7490;63.708;20.368;2023-11-21T03:25:45;1.77;;;1.67;;
14797;SDS011;7490;63.708;20.368;2023-11-21T03:28:11;1.70;;;1.60;;
14797;SDS011;7490;63.708;20.368;2023-11-21T03:30:38;1.55;;;1.45;;
14797;SDS011;7490;63.708;20.368;2023-11-21T03:33:03;2.00;;;1.90;;
14797;SDS011;7490;63.708;20.368;2023-11-21T03:35:29;2.57;;;2.00;;
14797;SDS011;7490;63.708;20.368;2023-11-21T03:37:54;2.00;;;1.57;;
14797;SDS011;7490;63.708;20.368;2023-11-21T03:40:21;1.73;;;1.63;;
14797;SDS011;7490;63.708;20.368;2023-11-21T03:42:47;1.80;;;1.70;;
14797;SDS011;7490;63.708;20.368;2023-11-21T03:45:12;1.90;;;1.67;;
14797;SDS011;7490;63.708;20.368;2023-11-21T03:47:39;2.05;;;1.83;;
14797;SDS011;7490;63.708;20.368;2023-11-21T03:50:06;1.40;;;1.30;;
14797;SDS011;7490;63.708;20.368;2023-11-21T03:52:33;2.03;;;1.77;;
14797;SDS011;7490;63.708;20.368;2023-11-21T03:55:00;2.33;;;1.38;;
14797;SDS011;7490;63.708;20.368;2023-11-21T03:57:26;1.63;;;1.50;;
14797;SDS011;7490;63.708;20.368;2023-11-21T03:59:52;3.63;;;1.90;;
14797;SDS011;7490;63.708;20.368;2023-11-21T04:02:18;1.83;;;1.70;;
14797;SDS011;7490;63.708;20.368;2023-11-21T04:04:44;2.23;;;1.60;;
14797;SDS011;7490;63.708;20.368;2023-11-21T04:07:10;1.93;;;1.40;;
14797;SDS011;7490;63.708;20.368;2023-11-21T04:09:36;1.93;;;1.67;;
14797;SDS011;7490;63.708;20.368;2023-11-21T04:12:02;1.40;;;1.30;;
14797;SDS011;7490;63.708;20.368;2023-11-21T04:14:27;1.83;;;1.40;;
14797;SDS011;7490;63.708;20.368;2023-11-21T04:16:53;1.60;;;1.50;;
14797;SDS011;7490;63.708;20.368;2023-11-21T04:19:19;1.80;;;1.70;;
14797;SDS011;7490;63.708;20.368;2023-11-21T04:21:45;1.83;;;1.73;;
14797;SDS011;7490;63.708;20.368;2023-11-21T04:24:11;1.27;;;1.23;;
14797;SDS011;7490;63.708;20.368;2023-11-21T04:26:37;1.70;;;1.60;;
14797;SDS011;7490;63.708;20.368;2023-11-21T04:29:02;1.87;;;1.77;;
14797;SDS011;7490;63.708;20.368;2023-11-21T04:31:29;1.60;;;1.60;;
14797;SDS011;7490;63.708;20.368;2023-11-21T04:33:55;1.45;;;1.35;;
14797;SDS011;7490;63.708;20.368;2023-11-21T04:36:21;1.73;;;1.63;;
14797;SDS011;7490;63.708;20.368;2023-11-21T04:38:47;1.70;;;1.40;;
14797;SDS011;7490;63.708;20.368;2023-11-21T04:41:12;1.70;;;1.60;;
14797;SDS011;7490;63.708;20.368;2023-11-21T04:43:38;1.93;;;1.60;;
14797;SDS011;7490;63.708;20.368;2023-11-21T04:46:03;3.07;;;1.10;;
14797;SDS011;7490;63.708;20.368;2023-11-21T04:48:29;1.33;;;1.33;;
14797;SDS011;7490;63.708;20.368;2023-11-21T04:50:55;1.40;;;1.30;;
14797;SDS011;7490;63.708;20.368;2023-11-21T04:53:21;1.23;;;1.23;;
14797;SDS011;7490;63.708;20.368;2023-11-21T04:55:47;1.30;;;1.30;;
14797;SDS011;7490;63.708;20.368;2023-11-21T04:58:13;1.20;;;1.17;;
14797;SDS011;7490;63.708;20.368;2023-11-21T05:00:39;1.43;;;1.43;;
14797;SDS011;7490;63.708;20.368;2023-11-21T05:03:05;1.50;;;1.40;;
14797;SDS011;7490;63.708;20.368;2023-11-21T05:05:32;0.98;;;0.98;;
14797;SDS011;7490;63.708;20.368;2023-11-21T05:07:59;1.40;;;1.30;;
14797;SDS011;7490;63.708;20.368;2023-11-21T05:10:24;1.27;;;1.10;;
14797;SDS011;7490;63.708;20.368;2023-11-21T05:12:50;1.43;;;1.33;;
14797;SDS011;7490;63.708;20.368;2023-11-21T05:15:16;1.77;;;1.67;;
14797;SDS011;7490;63.708;20.368;2023-11-21T05:17:42;1.50;;;1.40;;
14797;SDS011;7490;63.708;20.368;2023-11-21T05:20:12;2.15;;;1.65;;
14797;SDS011;7490;63.708;20.368;2023-11-21T05:22:39;2.65;;;1.70;;
14797;SDS011;7490;63.708;20.368;2023-11-21T05:25:07;1.80;;;1.55;;
14797;SDS011;7490;63.708;20.368;2023-11-21T05:27:33;1.95;;;1.13;;
14797;SDS011;7490;63.708;20.368;2023-11-21T05:30:04;1.23;;;1.20;;
14797;SDS011;7490;63.708;20.368;2023-11-21T05:32:30;1.73;;;1.63;;
14797;SDS011;7490;63.708;20.368;2023-11-21T05:34:56;1.63;;;1.55;;
14797;SDS011;7490;63.708;20.368;2023-11-21T05:37:22;1.47;;;1.37;;
14797;SDS011;7490;63.708;20.368;2023-11-21T05:39:52;2.22;;;1.73;;
14797;SDS011;7490;63.708;20.368;2023-11-21T05:42:21;1.80;;;1.70;;
14797;SDS011;7490;63.708;20.368;2023-11-21T05:44:48;1.55;;;1.45;;
14797;SDS011;7490;63.708;20.368;2023-11-21T05:47:14;1.50;;;1.40;;
14797;SDS011;7490;63.708;20.368;2023-11-21T05:49:40;1.50;;;1.40;;
14797;SDS011;7490;63.708;20.368;2023-11-21T05:52:05;1.80;;;1.70;;
14797;SDS011;7490;63.708;20.368;2023-11-21T05:54:32;1.40;;;1.30;;
14797;SDS011;7490;63.708;20.368;2023-11-21T05:56:57;1.65;;;1.55;;
14797;SDS011;7490;63.708;20.368;2023-11-21T05:59:24;1.88;;;1.77;;
14797;SDS011;7490;63.708;20.368;2023-11-21T06:01:49;2.10;;;1.50;;
14797;SDS011;7490;63.708;20.368;2023-11-21T06:04:15;1.73;;;1.63;;
14797;SDS011;7490;63.708;20.368;2023-11-21T06:06:41;3.00;;;1.83;;
14797;SDS011;7490;63.708;20.368;2023-11-21T06:09:06;1.63;;;1.50;;
14797;SDS011;7490;63.708;20.368;2023-11-21T06:11:34;1.90;;;1.80;;
14797;SDS011;7490;63.708;20.368;2023-11-21T06:14:00;1.73;;;1.63;;
14797;SDS011;7490;63.708;20.368;2023-11-21T06:16:27;2.15;;;1.52;;
14797;SDS011;7490;63.708;20.368;2023-11-21T06:18:53;2.03;;;1.83;;
14797;SDS011;7490;63.708;20.368;2023-11-21T06:21:18;1.50;;;1.40;;
14797;SDS011;7490;63.708;20.368;2023-11-21T06:23:44;2.00;;;1.70;;
14797;SDS011;7490;63.708;20.368;2023-11-21T06:26:10;1.80;;;1.70;;
14797;SDS011;7490;63.708;20.368;2023-11-21T06:28:35;2.57;;;1.83;;
14797;SDS011;7490;63.708;20.368;2023-11-21T06:31:01;2.83;;;2.50;;
14797;SDS011;7490;63.708;20.368;2023-11-21T06:33:30;2.53;;;1.20;;
14797;SDS011;7490;63.708;20.368;2023-11-21T06:35:57;1.73;;;1.63;;
14797;SDS011;7490;63.708;20.368;2023-11-21T06:38:23;2.00;;;1.90;;
14797;SDS011;7490;63.708;20.368;2023-11-21T06:40:49;1.90;;;1.67;;
14797;SDS011;7490;63.708;20.368;2023-11-21T06:43:14;1.97;;;1.60;;
14797;SDS011;7490;63.708;20.368;2023-11-21T06:45:42;2.28;;;1.80;;
14797;SDS011;7490;63.708;20.368;2023-11-21T06:48:09;1.60;;;1.50;;
14797;SDS011;7490;63.708;20.368;2023-11-21T06:50:35;3.93;;;1.57;;
14797;SDS011;7490;63.708;20.368;2023-11-21T06:53:01;3.03;;;1.70;;
14797;SDS011;7490;63.708;20.368;2023-11-21T06:55:29;3.35;;;1.83;;
14797;SDS011;7490;63.708;20.368;2023-11-21T06:57:56;1.75;;;1.35;;
14797;SDS011;7490;63.708;20.368;2023-11-21T07:00:23;1.45;;;1.35;;
14797;SDS011;7490;63.708;20.368;2023-11-21T07:02:48;2.77;;;2.10;;
14797;SDS011;7490;63.708;20.368;2023-11-21T07:05:14;2.10;;;2.00;;
14797;SDS011;7490;63.708;20.368;2023-11-21T07:07:40;1.95;;;1.40;;
14797;SDS011;7490;63.708;20.368;2023-11-21T07:10:06;1.70;;;1.60;;
14797;SDS011;7490;63.708;20.368;2023-11-21T07:12:33;2.15;;;1.95;;
14797;SDS011;7490;63.708;20.368;2023-11-21T07:14:59;3.80;;;3.50;;
14797;SDS011;7490;63.708;20.368;2023-11-21T07:17:25;2.97;;;2.77;;
14797;SDS011;7490;63.708;20.368;2023-11-21T07:19:50;2.63;;;2.43;;
14797;SDS011;7490;63.708;20.368;2023-11-21T07:22:16;2.17;;;2.07;;
14797;SDS011;7490;63.708;20.368;2023-11-21T07:24:49;3.25;;;2.17;;
14797;SDS011;7490;63.708;20.368;2023-11-21T07:27:15;1.85;;;1.75;;
14797;SDS011;7490;63.708;20.368;2023-11-21T07:29:42;2.33;;;2.10;;
14797;SDS011;7490;63.708;20.368;2023-11-21T07:32:07;3.07;;;1.97;;
14797;SDS011;7490;63.708;20.368;2023-11-21T07:34:34;2.00;;;1.80;;
14797;SDS011;7490;63.708;20.368;2023-11-21T07:37:01;2.08;;;1.95;;
14797;SDS011;7490;63.708;20.368;2023-11-21T07:39:27;1.98;;;1.88;;
14797;SDS011;7490;63.708;20.368;2023-11-21T07:41:53;3.30;;;1.40;;
14797;SDS011;7490;63.708;20.368;2023-11-21T07:44:19;1.77;;;1.63;;
14797;SDS011;7490;63.708;20.368;2023-11-21T07:46:45;2.17;;;1.83;;
14797;SDS011;7490;63.708;20.368;2023-11-21T07:49:11;2.03;;;1.67;;
14797;SDS011;7490;63.708;20.368;2023-11-21T07:51:39;3.17;;;2.67;;
14797;SDS011;7490;63.708;20.368;2023-11-21T07:54:05;1.97;;;1.87;;
14797;SDS011;7490;63.708;20.368;2023-11-21T07:56:31;2.93;;;2.20;;
14797;SDS011;7490;63.708;20.368;2023-11-21T07:58:57;2.37;;;2.00;;
14797;SDS011;7490;63.708;20.368;2023-11-21T08:01:22;1.90;;;1.80;;
14797;SDS011;7490;63.708;20.368;2023-11-21T08:03:49;1.40;;;1.30;;
14797;SDS011;7490;63.708;20.368;2023-11-21T08:06:17;2.10;;;1.90;;
14797;SDS011;7490;63.708;20.368;2023-11-21T08:08:42;1.83;;;1.73;;
14797;SDS011;7490;63.708;20.368;2023-11-21T08:11:08;2.03;;;1.50;;
14797;SDS011;7490;63.708;20.368;2023-11-21T08:13:35;1.40;;;1.30;;
14797;SDS011;7490;63.708;20.368;2023-11-21T08:16:01;1.48;;;1.48;;
14797;SDS011;7490;63.708;20.368;2023-11-21T08:18:28;1.33;;;1.23;;
14797;SDS011;7490;63.708;20.368;2023-11-21T08:20:55;1.02;;;1.02;;
14797;SDS011;7490;63.708;20.368;2023-11-21T08:23:21;1.65;;;1.65;;
14797;SDS011;7490;63.708;20.368;2023-11-21T08:25:50;1.30;;;1.20;;
14797;SDS011;7490;63.708;20.368;2023-11-21T08:28:16;1.00;;;1.00;;
14797;SDS011;7490;63.708;20.368;2023-11-21T08:30:42;1.10;;;1.10;;
14797;SDS011;7490;63.708;20.368;2023-11-21T08:33:08;1.17;;;1.17;;
14797;SDS011;7490;63.708;20.368;2023-11-21T08:35:33;1.50;;;1.40;;
14797;SDS011;7490;63.708;20.368;2023-11-21T08:37:59;1.60;;;1.33;;
14797;SDS011;7490;63.708;20.368;2023-11-21T08:40:25;1.63;;;1.37;;
14797;SDS011;7490;63.708;20.368;2023-11-21T08:42:51;1.40;;;1.30;;
14797;SDS011;7490;63.708;20.368;2023-11-21T08:45:18;1.27;;;1.17;;
14797;SDS011;7490;63.708;20.368;2023-11-21T08:47:44;1.30;;;1.20;;
14797;SDS011;7490;63.708;20.368;2023-11-21T08:50:10;1.52;;;1.42;;
14797;SDS011;7490;63.708;20.368;2023-11-21T08:52:37;1.42;;;1.33;;
14797;SDS011;7490;63.708;20.368;2023-11-21T08:55:04;1.85;;;1.55;;
14797;SDS011;7490;63.708;20.368;2023-11-21T08:57:36;1.60;;;1.42;;
14797;SDS011;7490;63.708;20.368;2023-11-21T09:00:05;1.70;;;1.58;;
14797;SDS011;7490;63.708;20.368;2023-11-21T09:02:42;1.67;;;1.45;;
14797;SDS011;7490;63.708;20.368;2023-11-21T09:05:11;1.27;;;1.27;;
14797;SDS011;7490;63.708;20.368;2023-11-21T09:07:38;1.75;;;1.65;;
14797;SDS011;7490;63.708;20.368;2023-11-21T09:10:11;1.85;;;1.35;;
14797;SDS011;7490;63.708;20.368;2023-11-21T09:12:36;1.20;;;1.20;;
14797;SDS011;7490;63.708;20.368;2023-11-21T09:15:03;1.38;;;1.38;;
14797;SDS011;7490;63.708;20.368;2023-11-21T09:17:30;1.30;;;1.30;;
14797;SDS011;7490;63.708;20.368;2023-11-21T09:19:56;1.58;;;1.48;;
14797;SDS011;7490;63.708;20.368;2023-11-21T09:22:23;1.45;;;1.35;;
14797;SDS011;7490;63.708;20.368;2023-11-21T09:24:52;1.45;;;1.45;;
14797;SDS011;7490;63.708;20.368;2023-11-21T09:27:18;1.20;;;1.20;;
14797;SDS011;7490;63.708;20.368;2023-11-21T09:29:44;1.80;;;1.70;;
14797;SDS011;7490;63.708;20.368;2023-11-21T09:32:10;2.15;;;1.17;;
14797;SDS011;7490;63.708;20.368;2023-11-21T09:34:39;1.40;;;1.40;;
14797;SDS011;7490;63.708;20.368;2023-11-21T09:37:05;1.23;;;1.20;;
14797;SDS011;7490;63.708;20.368;2023-11-21T09:39:31;1.60;;;1.50;;
14797;SDS011;7490;63.708;20.368;2023-11-21T09:42:03;1.48;;;1.38;;
14797;SDS011;7490;63.708;20.368;2023-11-21T09:44:38;1.38;;;1.38;;
14797;SDS011;7490;63.708;20.368;2023-11-21T09:47:07;1.10;;;1.10;;
14797;SDS011;7490;63.708;20.368;2023-11-21T09:49:35;1.40;;;1.30;;
14797;SDS011;7490;63.708;20.368;2023-11-21T09:52:03;1.30;;;1.20;;
14797;SDS011;7490;63.708;20.368;2023-11-21T09:54:32;1.20;;;1.20;;
14797;SDS011;7490;63.708;20.368;2023-11-21T09:57:00;1.40;;;1.30;;
14797;SDS011;7490;63.708;20.368;2023-11-21T09:59:29;0.93;;;0.93;;
14797;SDS011;7490;63.708;20.368;2023-11-21T10:01:57;1.00;;;1.00;;
14797;SDS011;7490;63.708;20.368;2023-11-21T10:04:23;1.33;;;1.23;;
14797;SDS011;7490;63.708;20.368;2023-11-21T10:06:50;1.20;;;1.20;;
14797;SDS011;7490;63.708;20.368;2023-11-21T10:09:18;1.30;;;1.20;;
14797;SDS011;7490;63.708;20.368;2023-11-21T10:11:45;1.08;;;1.02;;
14797;SDS011;7490;63.708;20.368;2023-11-21T10:14:14;1.55;;;1.10;;
14797;SDS011;7490;63.708;20.368;2023-11-21T10:16:42;2.38;;;1.50;;
14797;SDS011;7490;63.708;20.368;2023-11-21T10:19:12;1.17;;;1.08;;
14797;SDS011;7490;63.708;20.368;2023-11-21T10:21:38;1.20;;;1.10;;
14797;SDS011;7490;63.708;20.368;2023-11-21T10:24:04;1.30;;;1.20;;
14797;SDS011;7490;63.708;20.368;2023-11-21T10:26:31;1.00;;;1.00;;
14797;SDS011;7490;63.708;20.368;2023-11-21T10:28:59;2.88;;;1.30;;
14797;SDS011;7490;63.708;20.368;2023-11-21T10:31:31;1.50;;;1.50;;
14797;SDS011;7490;63.708;20.368;2023-11-21T10:36:43;1.48;;;1.33;;
14797;SDS011;7490;63.708;20.368;2023-11-21T10:39:09;1.00;;;1.00;;
14797;SDS011;7490;63.708;20.368;2023-11-21T10:41:46;1.48;;;1.25;;
14797;SDS011;7490;63.708;20.368;2023-11-21T10:44:15;1.23;;;1.20;;
14797;SDS011;7490;63.708;20.368;2023-11-21T10:46:52;1.67;;;1.33;;
14797;SDS011;7490;63.708;20.368;2023-11-21T10:49:25;2.05;;;1.83;;
14797;SDS011;7490;63.708;20.368;2023-11-21T10:51:55;1.95;;;1.70;;
14797;SDS011;7490;63.708;20.368;2023-11-21T10:54:21;2.38;;;1.40;;
14797;SDS011;7490;63.708;20.368;2023-11-21T10:56:53;1.75;;;1.65;;
14797;SDS011;7490;63.708;20.368;2023-11-21T10:59:22;1.60;;;1.50;;
14797;SDS011;7490;63.708;20.368;2023-11-21T11:01:50;1.38;;;1.27;;
14797;SDS011;7490;63.708;20.368;2023-11-21T11:04:20;1.00;;;1.00;;
14797;SDS011;7490;63.708;20.368;2023-11-21T11:06:50;1.40;;;1.40;;
14797;SDS011;7490;63.708;20.368;2023-11-21T11:09:19;2.17;;;0.90;;
14797;SDS011;7490;63.708;20.368;2023-11-21T11:11:45;2.17;;;1.50;;
14797;SDS011;7490;63.708;20.368;2023-11-21T11:14:12;2.75;;;1.45;;
14797;SDS011;7490;63.708;20.368;2023-11-21T11:16:39;1.73;;;1.20;;
14797;SDS011;7490;63.708;20.368;2023-11-21T11:19:06;1.17;;;1.08;;
14797;SDS011;7490;63.708;20.368;2023-11-21T11:35:33;2.00;;;1.77;;
14797;SDS011;7490;63.708;20.368;2023-11-21T11:38:06;2.35;;;1.70;;
14797;SDS011;7490;63.708;20.368;2023-11-21T11:40:39;2.75;;;1.80;;
14797;SDS011;7490;63.708;20.368;2023-11-21T11:43:06;1.92;;;1.77;;
14797;SDS011;7490;63.708;20.368;2023-11-21T11:45:32;2.85;;;1.67;;
14797;SDS011;7490;63.708;20.368;2023-11-21T11:48:00;3.17;;;1.60;;
14797;SDS011;7490;63.708;20.368;2023-11-21T11:50:27;1.90;;;1.70;;
14797;SDS011;7490;63.708;20.368;2023-11-21T11:52:53;3.03;;;1.60;;
14797;SDS011;7490;63.708;20.368;2023-11-21T11:55:21;3.60;;;1.90;;
14797;SDS011;7490;63.708;20.368;2023-11-21T11:57:54;2.30;;;1.92;;
14797;SDS011;7490;63.708;20.368;2023-11-21T12:02:53;1.67;;;1.58;;
14797;SDS011;7490;63.708;20.368;2023-11-21T12:05:22;5.30;;;1.42;;
14797;SDS011;7490;63.708;20.368;2023-11-21T12:10:17;1.70;;;1.60;;
14797;SDS011;7490;63.708;20.368;2023-11-21T12:12:50;2.70;;;1.88;;
14797;SDS011;7490;63.708;20.368;2023-11-21T12:15:17;2.17;;;1.88;;
14797;SDS011;7490;63.708;20.368;2023-11-21T12:17:44;2.00;;;1.50;;
14797;SDS011;7490;63.708;20.368;2023-11-21T12:20:14;1.90;;;1.80;;
14797;SDS011;7490;63.708;20.368;2023-11-21T12:25:16;1.67;;;1.58;;
14797;SDS011;7490;63.708;20.368;2023-11-21T12:27:47;3.15;;;1.70;;
14797;SDS011;7490;63.708;20.368;2023-11-21T12:30:15;1.98;;;1.77;;
14797;SDS011;7490;63.708;20.368;2023-11-21T12:32:43;1.90;;;1.80;;
14797;SDS011;7490;63.708;20.368;2023-11-21T12:35:11;1.65;;;1.55;;
14797;SDS011;7490;63.708;20.368;2023-11-21T12:37:37;2.95;;;2.00;;
14797;SDS011;7490;63.708;20.368;2023-11-21T12:40:09;3.00;;;1.85;;
14797;SDS011;7490;63.708;20.368;2023-11-21T12:42:37;2.10;;;2.00;;
14797;SDS011;7490;63.708;20.368;2023-11-21T12:45:12;2.20;;;1.85;;
14797;SDS011;7490;63.708;20.368;2023-11-21T12:47:44;2.30;;;2.10;;
14797;SDS011;7490;63.708;20.368;2023-11-21T12:50:10;2.38;;;2.13;;
14797;SDS011;7490;63.708;20.368;2023-11-21T12:52:45;2.28;;;2.05;;
14797;SDS011;7490;63.708;20.368;2023-11-21T12:55:18;2.88;;;1.77;;
14797;SDS011;7490;63.708;20.368;2023-11-21T12:57:47;1.92;;;1.75;;
14797;SDS011;7490;63.708;20.368;2023-11-21T13:00:16;1.80;;;1.70;;
14797;SDS011;7490;63.708;20.368;2023-11-21T13:02:53;1.90;;;1.65;;
14797;SDS011;7490;63.708;20.368;2023-11-21T13:05:35;2.13;;;1.83;;
14797;SDS011;7490;63.708;20.368;2023-11-21T13:08:08;2.38;;;1.58;;
14797;SDS011;7490;63.708;20.368;2023-11-21T13:10:37;1.95;;;1.85;;
14797;SDS011;7490;63.708;20.368;2023-11-21T13:13:05;2.05;;;1.95;;
14797;SDS011;7490;63.708;20.368;2023-11-21T13:15:34;6.20;;;3.67;;
14797;SDS011;7490;63.708;20.368;2023-11-21T13:18:04;3.55;;;2.80;;
14797;SDS011;7490;63.708;20.368;2023-11-21T13:20:30;2.50;;;2.30;;
14797;SDS011;7490;63.708;20.368;2023-11-21T13:22:57;1.95;;;1.85;;
14797;SDS011;7490;63.708;20.368;2023-11-21T13:25:29;5.68;;;2.80;;
14797;SDS011;7490;63.708;20.368;2023-11-21T13:27:59;2.42;;;1.90;;
14797;SDS011;7490;63.708;20.368;2023-11-21T13:30:28;3.55;;;1.98;;
14797;SDS011;7490;63.708;20.368;2023-11-21T13:33:00;2.75;;;1.65;;
14797;SDS011;7490;63.708;20.368;2023-11-21T13:35:33;1.70;;;1.60;;
14797;SDS011;7490;63.708;20.368;2023-11-21T13:38:06;2.17;;;2.08;;
14797;SDS011;7490;63.708;20.368;2023-11-21T13:40:32;2.00;;;1.90;;
14797;SDS011;7490;63.708;20.368;2023-11-21T13:43:05;2.53;;;2.33;;
14797;SDS011;7490;63.708;20.368;2023-11-21T13:45:34;2.17;;;2.08;;
14797;SDS011;7490;63.708;20.368;2023-11-21T13:48:01;4.15;;;3.25;;
14797;SDS011;7490;63.708;20.368;2023-11-21T13:50:27;5.72;;;3.85;;
14797;SDS011;7490;63.708;20.368;2023-11-21T13:52:59;3.80;;;3.08;;
14797;SDS011;7490;63.708;20.368;2023-11-21T13:55:41;5.75;;;2.97;;
14797;SDS011;7490;63.708;20.368;2023-11-21T13:58:07;4.95;;;3.08;;
14797;SDS011;7490;63.708;20.368;2023-11-21T14:00:36;2.20;;;2.00;;
14797;SDS011;7490;63.708;20.368;2023-11-21T14:03:13;2.35;;;2.00;;
14797;SDS011;7490;63.708;20.368;2023-11-21T14:05:57;4.95;;;3.10;;
14797;SDS011;7490;63.708;20.368;2023-11-21T14:08:25;8.45;;;3.78;;
14797;SDS011;7490;63.708;20.368;2023-11-21T14:10:57;4.82;;;3.13;;
14797;SDS011;7490;63.708;20.368;2023-11-21T14:13:27;5.28;;;2.97;;
14797;SDS011;7490;63.708;20.368;2023-11-21T14:15:53;2.92;;;2.67;;
14797;SDS011;7490;63.708;20.368;2023-11-21T14:18:27;4.18;;;2.97;;
14797;SDS011;7490;63.708;20.368;2023-11-21T14:21:04;2.58;;;2.38;;
14797;SDS011;7490;63.708;20.368;2023-11-21T14:23:31;3.55;;;2.35;;
14797;SDS011;7490;63.708;20.368;2023-11-21T14:25:59;7.57;;;4.53;;
14797;SDS011;7490;63.708;20.368;2023-11-21T14:28:26;3.88;;;3.05;;
14797;SDS011;7490;63.708;20.368;2023-11-21T14:30:52;3.93;;;2.93;;
14797;SDS011;7490;63.708;20.368;2023-11-21T14:33:17;5.00;;;3.40;;
14797;SDS011;7490;63.708;20.368;2023-11-21T14:35:43;2.93;;;2.43;;
14797;SDS011;7490;63.708;20.368;2023-11-21T14:38:09;2.13;;;1.92;;
14797;SDS011;7490;63.708;20.368;2023-11-21T14:40:35;3.03;;;1.95;;
14797;SDS011;7490;63.708;20.368;2023-11-21T14:43:04;1.80;;;1.70;;
14797;SDS011;7490;63.708;20.368;2023-11-21T14:45:31;8.48;;;3.13;;
14797;SDS011;7490;63.708;20.368;2023-11-21T14:47:58;4.80;;;2.80;;
14797;SDS011;7490;63.708;20.368;2023-11-21T14:50:51;4.78;;;3.03;;
14797;SDS011;7490;63.708;20.368;2023-11-21T14:53:28;3.55;;;2.70;;
14797;SDS011;7490;63.708;20.368;2023-11-21T14:56:21;2.70;;;2.50;;
14797;SDS011;7490;63.708;20.368;2023-11-21T14:58:57;5.03;;;3.05;;
14797;SDS011;7490;63.708;20.368;2023-11-21T15:01:25;11.63;;;2.78;;
14797;SDS011;7490;63.708;20.368;2023-11-21T15:04:11;5.82;;;3.65;;
14797;SDS011;7490;63.708;20.368;2023-11-21T15:06:48;4.53;;;2.83;;
14797;SDS011;7490;63.708;20.368;2023-11-21T15:09:16;6.75;;;3.42;;
14797;SDS011;7490;63.708;20.368;2023-11-21T15:12:00;5.38;;;2.50;;
14797;SDS011;7490;63.708;20.368;2023-11-21T15:14:45;3.15;;;2.20;;
14797;SDS011;7490;63.708;20.368;2023-11-21T15:17:18;5.32;;;2.17;;